Time,TemperatureF,DewpointF,PressureIn,WindDirection,WindDirectionDegrees,WindSpeedMPH,WindSpeedGustMPH,Humidity,HourlyPrecipIn,Conditions,Clouds,dailyrainin,SolarRadiationWatts/m^2,SoftwareType,DateUTC
2013-03-13 00:22:00,58.0,58.0,-100.00,SW,234,6.0,6.0,100,0.00,,,0.00,0.000000,,2013-03-13 10:22:00,
2013-03-13 00:32:00,58.0,58.0,-100.00,SW,234,6.0,6.0,100,0.00,,,0.00,0.000000,,2013-03-13 10:32:00,
2013-03-13 00:42:00,58.0,58.0,-100.00,SW,234,6.0,6.0,100,0.00,,,0.00,0.000000,,2013-03-13 10:42:00,
2013-03-13 00:52:00,58.0,58.0,-100.00,SW,234,6.0,6.0,100,0.00,,,0.00,0.000000,,2013-03-13 10:52:00,
2013-03-13 01:22:00,59.0,59.0,-100.00,SW,236,5.0,7.0,100,0.00,,,0.00,0.000000,,2013-03-13 11:22:00,
2013-03-13 01:32:00,59.0,59.0,-100.00,SW,236,5.0,7.0,100,0.00,,,0.00,0.000000,,2013-03-13 11:32:00,
2013-03-13 01:42:00,59.0,59.0,-100.00,SW,236,5.0,7.0,100,0.00,,,0.00,0.000000,,2013-03-13 11:42:00,
2013-03-13 01:52:00,59.0,59.0,-100.00,SW,236,5.0,7.0,100,0.00,,,0.00,0.000000,,2013-03-13 11:52:00,
2013-03-13 02:22:00,56.0,56.0,-100.00,SSW,210,2.0,5.0,100,0.00,,,0.00,0.000000,,2013-03-13 12:22:00,
2013-03-13 02:32:00,56.0,56.0,-100.00,SSW,210,2.0,5.0,100,0.00,,,0.00,0.000000,,2013-03-13 12:32:00,
2013-03-13 02:42:00,56.0,56.0,-100.00,SSW,210,2.0,5.0,100,0.00,,,0.00,0.000000,,2013-03-13 12:42:00,
2013-03-13 02:52:00,56.0,56.0,-100.00,SSW,210,2.0,5.0,100,0.00,,,0.00,0.000000,,2013-03-13 12:52:00,
2013-03-13 03:22:00,56.0,56.0,-100.00,WSW,242,3.0,4.0,100,0.00,,,0.00,0.000000,,2013-03-13 13:22:00,
2013-03-13 03:32:00,56.0,56.0,-100.00,WSW,242,3.0,4.0,100,0.00,,,0.00,0.000000,,2013-03-13 13:32:00,
2013-03-13 03:42:00,56.0,56.0,-100.00,WSW,242,3.0,4.0,100,0.00,,,0.00,0.000000,,2013-03-13 13:42:00,
2013-03-13 03:52:00,56.0,56.0,-100.00,WSW,242,3.0,4.0,100,0.00,,,0.00,0.000000,,2013-03-13 13:52:00,
2013-03-13 04:21:00,59.0,59.0,-100.00,SW,230,3.0,7.0,100,0.00,,,0.00,0.000000,,2013-03-13 14:21:00,
2013-03-13 04:33:00,59.0,59.0,-100.00,SW,230,3.0,7.0,100,0.00,,,0.00,0.000000,,2013-03-13 14:33:00,
2013-03-13 04:42:00,59.0,59.0,-100.00,SW,230,3.0,7.0,100,0.00,,,0.00,0.000000,,2013-03-13 14:42:00,
2013-03-13 04:52:00,59.0,59.0,-100.00,SW,230,3.0,7.0,100,0.00,,,0.00,0.000000,,2013-03-13 14:52:00,
2013-03-13 05:22:00,58.0,58.0,-100.00,WSW,252,4.0,6.0,100,0.00,,,0.00,0.000000,,2013-03-13 15:22:00,
2013-03-13 05:32:00,58.0,58.0,-100.00,WSW,252,4.0,6.0,100,0.00,,,0.00,0.000000,,2013-03-13 15:32:00,
2013-03-13 05:42:00,58.0,58.0,-100.00,WSW,252,4.0,6.0,100,0.00,,,0.00,0.000000,,2013-03-13 15:42:00,
2013-03-13 05:52:00,58.0,58.0,-100.00,WSW,252,4.0,6.0,100,0.00,,,0.00,0.000000,,2013-03-13 15:52:00,
2013-03-13 06:22:00,58.0,58.0,-100.00,WSW,242,4.0,6.0,100,0.00,,,0.00,0.000000,,2013-03-13 16:22:00,
2013-03-13 06:32:00,58.0,58.0,-100.00,WSW,242,4.0,6.0,100,0.00,,,0.00,0.000000,,2013-03-13 16:32:00,
2013-03-13 06:42:00,58.0,58.0,-100.00,WSW,242,4.0,6.0,100,0.00,,,0.00,0.000000,,2013-03-13 16:42:00,
2013-03-13 06:52:00,58.0,58.0,-100.00,WSW,242,4.0,6.0,100,0.00,,,0.00,0.000000,,2013-03-13 16:52:00,
2013-03-13 07:22:00,56.0,56.0,-100.00,WSW,248,5.0,6.0,100,0.00,,,0.00,1.000000,,2013-03-13 17:22:00,
2013-03-13 07:32:00,56.0,56.0,-100.00,WSW,248,5.0,6.0,100,0.00,,,0.00,1.000000,,2013-03-13 17:32:00,
2013-03-13 07:42:00,56.0,56.0,-100.00,WSW,248,5.0,6.0,100,0.00,,,0.00,1.000000,,2013-03-13 17:42:00,
2013-03-13 07:53:00,56.0,56.0,-100.00,WSW,248,5.0,6.0,100,0.00,,,0.00,1.000000,,2013-03-13 17:53:00,
2013-03-13 08:22:00,66.0,65.0,-100.00,NW,324,3.0,6.0,97,0.00,,,0.00,56.000000,,2013-03-13 18:22:00,
2013-03-13 08:33:00,66.0,65.0,-100.00,NW,324,3.0,6.0,97,0.00,,,0.00,56.000000,,2013-03-13 18:33:00,
2013-03-13 08:42:00,66.0,65.0,-100.00,NW,324,3.0,6.0,97,0.00,,,0.00,56.000000,,2013-03-13 18:42:00,
2013-03-13 08:51:00,66.0,65.0,-100.00,NW,324,3.0,6.0,97,0.00,,,0.00,56.000000,,2013-03-13 18:51:00,
2013-03-13 09:22:00,70.0,63.0,-100.00,North,352,5.0,9.0,79,0.00,,,0.00,136.000000,,2013-03-13 19:22:00,
2013-03-13 09:32:00,70.0,63.0,-100.00,North,352,5.0,9.0,79,0.00,,,0.00,136.000000,,2013-03-13 19:32:00,
2013-03-13 09:42:00,70.0,63.0,-100.00,North,352,5.0,9.0,79,0.00,,,0.00,136.000000,,2013-03-13 19:42:00,
2013-03-13 09:52:00,70.0,63.0,-100.00,North,352,5.0,9.0,79,0.00,,,0.00,136.000000,,2013-03-13 19:52:00,
2013-03-13 10:22:00,70.0,62.0,-100.00,NW,317,5.0,12.0,76,0.00,,,0.00,242.000000,,2013-03-13 20:22:00,
2013-03-13 10:32:00,70.0,62.0,-100.00,NW,317,5.0,12.0,76,0.00,,,0.00,242.000000,,2013-03-13 20:32:00,
2013-03-13 10:42:00,70.0,62.0,-100.00,NW,317,5.0,12.0,76,0.00,,,0.00,242.000000,,2013-03-13 20:42:00,
2013-03-13 10:52:00,70.0,62.0,-100.00,NW,317,5.0,12.0,76,0.00,,,0.00,242.000000,,2013-03-13 20:52:00,
2013-03-13 11:22:00,73.0,63.0,-100.00,ESE,119,5.0,16.0,70,0.00,,,0.00,387.000000,,2013-03-13 21:22:00,
2013-03-13 11:32:00,73.0,63.0,-100.00,ESE,119,5.0,16.0,70,0.00,,,0.00,387.000000,,2013-03-13 21:32:00,
2013-03-13 11:42:00,73.0,63.0,-100.00,ESE,119,5.0,16.0,70,0.00,,,0.00,387.000000,,2013-03-13 21:42:00,
2013-03-13 11:51:00,73.0,63.0,-100.00,ESE,119,5.0,16.0,70,0.00,,,0.00,387.000000,,2013-03-13 21:51:00,
2013-03-13 12:22:00,74.0,62.0,-100.00,NW,314,7.0,15.0,67,0.00,,,0.00,561.000000,,2013-03-13 22:22:00,
2013-03-13 12:32:00,74.0,62.0,-100.00,NW,314,7.0,15.0,67,0.00,,,0.00,561.000000,,2013-03-13 22:32:00,
2013-03-13 12:42:00,74.0,62.0,-100.00,NW,314,7.0,15.0,67,0.00,,,0.00,561.000000,,2013-03-13 22:42:00,
2013-03-13 12:52:00,74.0,62.0,-100.00,NW,314,7.0,15.0,67,0.00,,,0.00,561.000000,,2013-03-13 22:52:00,
2013-03-13 13:22:00,71.0,63.0,-100.00,WNW,292,11.0,18.0,75,0.01,,,-99.99,314.000000,,2013-03-13 23:22:00,
2013-03-13 13:32:00,71.0,63.0,-100.00,WNW,292,11.0,18.0,75,0.01,,,-99.99,314.000000,,2013-03-13 23:32:00,
2013-03-13 13:42:00,71.0,63.0,-100.00,WNW,292,11.0,18.0,75,0.01,,,-99.99,314.000000,,2013-03-13 23:42:00,
2013-03-13 13:51:00,71.0,63.0,-100.00,WNW,292,11.0,18.0,75,0.01,,,-99.99,314.000000,,2013-03-13 23:51:00,
2013-03-13 14:22:00,73.0,66.0,-100.00,West,261,9.0,18.0,78,0.00,,,0.01,467.000000,,2013-03-14 00:22:00,
2013-03-13 14:32:00,73.0,66.0,-100.00,West,261,9.0,18.0,78,0.00,,,0.01,467.000000,,2013-03-14 00:32:00,
2013-03-13 14:42:00,73.0,66.0,-100.00,West,261,9.0,18.0,78,0.00,,,0.01,467.000000,,2013-03-14 00:42:00,
2013-03-13 14:52:00,73.0,66.0,-100.00,West,261,9.0,18.0,78,0.00,,,0.01,467.000000,,2013-03-14 00:52:00,
2013-03-13 15:22:00,71.0,63.0,-100.00,WNW,287,9.0,19.0,75,0.00,,,0.01,732.000000,,2013-03-14 01:22:00,
2013-03-13 15:32:00,71.0,63.0,-100.00,WNW,287,9.0,19.0,75,0.00,,,0.01,732.000000,,2013-03-14 01:32:00,
2013-03-13 15:42:00,71.0,63.0,-100.00,WNW,287,9.0,19.0,75,0.00,,,0.01,732.000000,,2013-03-14 01:42:00,
2013-03-13 15:52:00,71.0,63.0,-100.00,WNW,287,9.0,19.0,75,0.00,,,0.01,732.000000,,2013-03-14 01:52:00,
2013-03-13 16:22:00,69.0,64.0,-100.00,WNW,293,10.0,18.0,83,0.00,,,0.01,164.000000,,2013-03-14 02:22:00,
2013-03-13 16:32:00,69.0,64.0,-100.00,WNW,293,10.0,18.0,83,0.00,,,0.01,164.000000,,2013-03-14 02:32:00,
2013-03-13 16:42:00,69.0,64.0,-100.00,WNW,293,10.0,18.0,83,0.00,,,0.01,164.000000,,2013-03-14 02:42:00,
2013-03-13 16:51:00,69.0,64.0,-100.00,WNW,293,10.0,18.0,83,0.00,,,0.01,164.000000,,2013-03-14 02:51:00,
2013-03-13 17:22:00,68.0,63.0,-100.00,WNW,291,10.0,14.0,83,0.00,,,0.01,172.000000,,2013-03-14 03:22:00,
2013-03-13 17:32:00,68.0,63.0,-100.00,WNW,291,10.0,14.0,83,0.00,,,0.01,172.000000,,2013-03-14 03:32:00,
2013-03-13 17:42:00,68.0,63.0,-100.00,WNW,291,10.0,14.0,83,0.00,,,0.01,172.000000,,2013-03-14 03:42:00,
2013-03-13 17:52:00,68.0,63.0,-100.00,WNW,291,10.0,14.0,83,0.00,,,0.01,172.000000,,2013-03-14 03:52:00,
2013-03-13 18:22:00,67.0,62.0,-100.00,NNW,339,3.0,14.0,84,0.00,,,0.01,40.000000,,2013-03-14 04:22:00,
2013-03-13 18:32:00,67.0,62.0,-100.00,NNW,339,3.0,14.0,84,0.00,,,0.01,40.000000,,2013-03-14 04:32:00,
2013-03-13 18:42:00,67.0,62.0,-100.00,NNW,339,3.0,14.0,84,0.00,,,0.01,40.000000,,2013-03-14 04:42:00,
2013-03-13 18:52:00,67.0,62.0,-100.00,NNW,339,3.0,14.0,84,0.00,,,0.01,40.000000,,2013-03-14 04:52:00,
2013-03-13 19:22:00,67.0,64.0,-100.00,WNW,287,1.0,6.0,91,0.00,,,0.01,9.000000,,2013-03-14 05:22:00,
2013-03-13 19:33:00,67.0,64.0,-100.00,WNW,287,1.0,6.0,91,0.00,,,0.01,9.000000,,2013-03-14 05:33:00,
2013-03-13 19:42:00,67.0,64.0,-100.00,WNW,287,1.0,6.0,91,0.00,,,0.01,9.000000,,2013-03-14 05:42:00,
2013-03-13 19:52:00,67.0,64.0,-100.00,WNW,287,1.0,6.0,91,0.00,,,0.01,9.000000,,2013-03-14 05:52:00,
2013-03-13 20:22:00,66.0,64.0,-100.00,WSW,256,2.0,6.0,94,0.00,,,0.01,0.000000,,2013-03-14 06:22:00,
2013-03-13 20:32:00,66.0,64.0,-100.00,WSW,256,2.0,6.0,94,0.00,,,0.01,0.000000,,2013-03-14 06:32:00,
2013-03-13 20:42:00,66.0,64.0,-100.00,WSW,256,2.0,6.0,94,0.00,,,0.01,0.000000,,2013-03-14 06:42:00,
2013-03-13 20:52:00,66.0,64.0,-100.00,WSW,256,2.0,6.0,94,0.00,,,0.01,0.000000,,2013-03-14 06:52:00,
2013-03-13 21:22:00,65.0,65.0,-100.00,SSE,160,2.0,5.0,99,0.00,,,-99.99,0.000000,,2013-03-14 07:22:00,
2013-03-13 21:32:00,65.0,65.0,-100.00,SSE,160,2.0,5.0,99,0.00,,,-99.99,0.000000,,2013-03-14 07:32:00,
2013-03-13 21:42:00,65.0,65.0,-100.00,SSE,160,2.0,5.0,99,0.00,,,-99.99,0.000000,,2013-03-14 07:42:00,
2013-03-13 21:52:00,65.0,65.0,-100.00,SSE,160,2.0,5.0,99,0.00,,,-99.99,0.000000,,2013-03-14 07:52:00,
2013-03-13 22:21:00,61.0,61.0,-100.00,SE,133,1.0,5.0,100,0.00,,,0.01,0.000000,,2013-03-14 08:21:00,
2013-03-13 22:32:00,61.0,61.0,-100.00,SE,133,1.0,5.0,100,0.00,,,0.01,0.000000,,2013-03-14 08:32:00,
2013-03-13 22:41:00,61.0,61.0,-100.00,SE,133,1.0,5.0,100,0.00,,,0.01,0.000000,,2013-03-14 08:41:00,
2013-03-13 22:51:00,61.0,61.0,-100.00,SE,133,1.0,5.0,100,0.00,,,0.01,0.000000,,2013-03-14 08:51:00,
2013-03-13 23:22:00,60.0,60.0,-100.00,WSW,239,2.0,5.0,100,0.00,,,0.01,0.000000,,2013-03-14 09:22:00,
2013-03-13 23:32:00,60.0,60.0,-100.00,WSW,239,2.0,5.0,100,0.00,,,0.01,0.000000,,2013-03-14 09:32:00,
2013-03-13 23:42:00,60.0,60.0,-100.00,WSW,239,2.0,5.0,100,0.00,,,0.01,0.000000,,2013-03-14 09:42:00,
2013-03-13 23:51:00,60.0,60.0,-100.00,WSW,239,2.0,5.0,100,0.00,,,0.01,0.000000,,2013-03-14 09:51:00,